Time;durP1;ratioP1;P1;durP2;ratioP2;P2;SDS_P1;SDS_P2;PMS_P1;PMS_P2;Temp;Humidity;BMP_temperature;BMP_pressure;BME280_temperature;BME280_humidity;BME280_pressure;Samples;Min_cycle;Max_cycle;Signal;HPM_P1;HPM_P2
2022/10/04 00:02:27;;;;;;;10.50;7.43;;;6.60;99.90;;;6.71;91.23;98753.28;5119318;27;20482;-82
2022/10/04 00:05:03;;;;;;;9.63;7.80;;;6.70;99.90;;;6.62;91.42;98767.75;5132154;27;20520;-82
2022/10/04 00:07:37;;;;;;;11.30;6.90;;;6.60;99.90;;;6.55;92.04;98759.53;5102443;27;20450;-82
2022/10/04 00:10:18;;;;;;;9.27;6.77;;;6.50;99.90;;;6.51;91.60;98750.13;5111315;27;20900;-82
2022/10/04 00:12:49;;;;;;;11.50;8.07;;;6.40;99.90;;;6.41;93.12;98749.50;5121323;27;20485;-81
2022/10/04 00:15:23;;;;;;;10.70;7.93;;;6.40;99.90;;;6.44;93.79;98749.16;5107456;27;20506;-82
2022/10/04 00:18:21;;;;;;;15.70;7.73;;;6.50;99.90;;;6.55;92.87;98756.00;5117688;27;20476;-82
2022/10/04 00:21:05;;;;;;;9.43;7.90;;;6.50;99.90;;;6.23;94.08;98748.69;5117029;27;20510;-83
2022/10/04 00:23:47;;;;;;;12.07;7.43;;;6.50;99.90;;;5.83;93.85;98688.63;5116773;27;20498;-82
2022/10/04 00:27:12;;;;;;;14.10;8.47;;;6.50;99.90;;;6.36;93.54;98758.88;5109158;27;20817;-84
2022/10/04 00:29:42;;;;;;;8.00;7.10;;;6.40;99.90;;;6.38;92.79;98756.03;5117167;27;20503;-82
2022/10/04 00:32:27;;;;;;;8.07;6.70;;;6.40;99.90;;;6.35;92.86;98753.69;5127066;27;20502;-82
2022/10/04 00:34:56;;;;;;;9.00;6.70;;;6.30;99.90;;;6.31;92.08;98749.69;5124251;27;20550;-84
2022/10/04 00:37:24;;;;;;;9.60;7.50;;;6.20;99.90;;;6.29;92.36;98751.69;5102512;28;20441;-84
2022/10/04 00:40:11;;;;;;;9.33;7.50;;;6.20;99.90;;;6.12;92.92;98735.59;5096915;28;20451;-81
2022/10/04 00:42:58;;;;;;;9.93;7.40;;;6.20;99.90;;;6.05;93.79;98740.81;5113834;27;20481;-82
2022/10/04 00:45:34;;;;;;;9.40;7.40;;;6.20;99.90;;;6.09;93.46;98730.56;5133019;27;20696;-83
2022/10/04 00:48:31;;;;;;;13.27;7.07;;;6.20;99.90;;;6.17;92.32;98717.16;5093245;28;20451;-82
2022/10/04 00:51:05;;;;;;;9.73;7.33;;;6.10;99.90;;;6.07;92.19;98721.88;5096074;28;20493;-82
2022/10/04 00:53:46;;;;;;;10.40;6.47;;;6.10;99.90;;;6.03;92.66;98720.53;5092914;28;20475;-82
2022/10/04 00:56:26;;;;;;;8.80;7.00;;;6.00;99.90;;;6.05;92.84;98723.88;5099683;27;20461;-83
2022/10/04 00:59:27;;;;;;;7.63;6.90;;;6.00;99.90;;;5.98;93.00;98722.84;5104555;27;20449;-83
2022/10/04 01:01:59;;;;;;;9.23;7.30;;;6.00;99.90;;;6.03;92.60;98720.53;5121400;27;20478;-83
2022/10/04 01:04:37;;;;;;;8.70;6.70;;;6.00;99.90;;;6.00;92.80;98727.03;5106359;27;20468;-82
2022/10/04 01:07:05;;;;;;;12.03;6.90;;;6.00;99.90;;;5.81;91.86;98701.38;5104236;27;20446;-82
2022/10/04 01:09:41;;;;;;;8.53;6.57;;;6.00;99.90;;;5.82;92.71;98735.25;5094011;28;20512;-81
2022/10/04 01:12:17;;;;;;;10.10;8.17;;;5.80;99.90;;;5.81;92.65;98733.56;5118386;27;20510;-81
2022/10/04 01:14:53;;;;;;;10.67;7.10;;;5.80;99.90;;;5.86;92.48;98725.88;5114023;27;20457;-82
2022/10/04 01:17:22;;;;;;;10.57;7.17;;;5.80;99.90;;;5.34;92.28;98636.69;5115069;27;20523;-83
2022/10/04 01:19:53;;;;;;;7.83;6.83;;;5.90;99.90;;;5.88;92.48;98723.88;5123056;27;20448;-83
2022/10/04 01:22:37;;;;;;;10.90;6.60;;;5.80;99.90;;;5.74;91.86;98695.03;5115895;27;20500;-82
2022/10/04 01:25:05;;;;;;;10.00;7.80;;;5.80;99.90;;;5.64;92.50;98712.09;5119769;27;20546;-79
2022/10/04 01:27:42;;;;;;;11.13;7.33;;;5.80;99.90;;;5.59;92.04;98703.75;5106561;27;20468;-80
2022/10/04 01:30:13;;;;;;;9.07;7.07;;;5.80;99.90;;;5.71;91.99;98719.50;5117483;27;20462;-81
2022/10/04 01:32:40;;;;;;;18.20;7.67;;;5.80;99.90;;;5.35;91.30;98683.94;5100162;27;20553;-81
2022/10/04 01:35:12;;;;;;;10.13;6.60;;;5.70;99.90;;;5.62;92.53;98724.84;5103459;27;21147;-79
2022/10/04 01:37:40;;;;;;;8.40;6.23;;;5.70;99.90;;;5.50;91.61;98700.22;5104514;27;20448;-80
2022/10/04 01:40:10;;;;;;;9.50;6.57;;;5.70;99.90;;;5.57;91.16;98719.16;5120640;27;20493;-80
2022/10/04 01:42:43;;;;;;;8.20;6.03;;;5.60;99.90;;;5.57;91.60;98731.72;5116759;27;20463;-81
2022/10/04 01:45:16;;;;;;;9.50;6.70;;;5.50;99.90;;;5.51;91.82;98717.13;5103595;27;20480;-83
2022/10/04 01:47:49;;;;;;;11.10;6.97;;;5.50;99.90;;;5.34;93.17;98722.44;5104845;27;20461;-82
2022/10/04 01:50:23;;;;;;;9.50;7.27;;;5.50;99.90;;;5.28;92.88;98722.28;5122241;27;20466;-83
2022/10/04 01:53:00;;;;;;;10.10;6.73;;;5.40;99.90;;;5.22;92.21;98705.00;5099292;27;20544;-79
2022/10/04 01:55:33;;;;;;;10.00;8.30;;;5.40;99.90;;;5.19;92.75;98700.84;5121753;27;20454;-82
2022/10/04 01:58:08;;;;;;;10.77;7.70;;;5.40;99.90;;;5.27;92.99;98712.56;5099979;28;20454;-82
2022/10/04 02:00:37;;;;;;;9.20;7.60;;;5.40;99.90;;;5.21;93.33;98714.03;5121843;27;20454;-81
2022/10/04 02:03:13;;;;;;;8.67;7.33;;;5.40;99.90;;;5.25;92.72;98712.75;5105790;28;20518;-83
2022/10/04 02:05:46;;;;;;;8.20;7.40;;;5.40;99.90;;;5.25;92.18;98713.56;5120450;27;20946;-83
2022/10/04 02:08:17;;;;;;;7.03;6.33;;;5.40;99.90;;;5.23;91.83;98725.44;5103277;27;21116;-82
2022/10/04 02:10:48;;;;;;;12.57;8.10;;;5.30;99.90;;;5.26;91.67;98714.41;5121526;27;20493;-82
2022/10/04 02:13:18;;;;;;;9.43;6.90;;;5.30;99.90;;;5.03;91.79;98698.94;5121296;27;20581;-82
2022/10/04 02:15:46;;;;;;;10.90;6.17;;;5.20;99.90;;;5.09;92.61;98706.34;5129035;27;20453;-81
2022/10/04 02:18:19;;;;;;;9.13;7.53;;;5.20;99.90;;;5.04;92.08;98689.91;5110848;28;20458;-82
2022/10/04 02:20:49;;;;;;;10.00;7.03;;;5.10;99.90;;;5.10;92.25;98697.31;5135447;27;20476;-81
2022/10/04 02:23:20;;;;;;;7.57;6.80;;;5.10;99.90;;;5.07;92.36;98694.91;5111443;28;20526;-83
2022/10/04 02:25:48;;;;;;;14.83;7.00;;;5.10;99.90;;;5.01;92.16;98690.22;5121248;28;20487;-82
2022/10/04 02:28:17;;;;;;;8.30;7.30;;;5.10;99.90;;;5.03;92.08;98698.94;5118138;28;22191;-81
2022/10/04 02:32:56;;;;;;;14.70;7.53;;;5.10;99.90;;;5.07;91.92;98704.81;5099549;28;20512;-83
2022/10/04 02:33:41;;;;;;;14.23;7.43;;;5.10;99.90;;;4.89;92.22;98689.69;5105750;28;20482;-82
2022/10/04 02:36:10;;;;;;;9.57;6.60;;;5.10;99.90;;;4.82;92.39;98675.28;5115420;28;20450;-81
2022/10/04 02:38:45;;;;;;;8.23;7.30;;;5.10;99.90;;;5.03;92.17;98682.88;5118417;28;20527;-83
2022/10/04 02:41:24;;;;;;;12.47;8.10;;;5.10;99.90;;;4.86;92.42;98682.00;5115095;28;20914;-83
2022/10/04 02:43:56;;;;;;;11.60;7.37;;;5.00;99.90;;;4.89;93.16;98686.16;5119447;28;20457;-82
2022/10/04 02:46:28;;;;;;;9.93;7.90;;;5.00;99.90;;;4.75;92.28;98655.50;5103158;28;20482;-82
2022/10/04 02:48:58;;;;;;;12.53;8.90;;;5.00;99.90;;;4.73;93.74;98677.09;5103065;28;20723;-82
2022/10/04 02:51:33;;;;;;;11.20;8.23;;;5.00;99.90;;;4.72;93.61;98655.84;5115673;28;20449;-83
2022/10/04 02:54:15;;;;;;;10.53;7.07;;;5.00;99.90;;;4.82;93.72;98664.56;5107584;28;20584;-83
2022/10/04 02:56:43;;;;;;;9.63;7.80;;;5.00;99.90;;;4.71;94.37;98664.88;5118474;27;20459;-81
2022/10/04 02:59:16;;;;;;;11.30;8.83;;;5.00;99.90;;;4.66;94.24;98654.66;5129117;27;20473;-81
2022/10/04 03:01:52;;;;;;;12.43;8.70;;;5.00;99.90;;;4.76;93.84;98660.69;5121699;27;20454;-81
2022/10/04 03:04:25;;;;;;;12.70;8.53;;;5.00;99.90;;;4.81;94.48;98673.59;5105542;27;20462;-82
2022/10/04 03:06:53;;;;;;;9.90;8.27;;;5.00;99.90;;;4.92;94.49;98675.13;5102088;28;20465;-83
2022/10/04 03:09:24;;;;;;;8.20;7.40;;;5.00;99.90;;;4.79;94.15;98671.09;5124743;27;20480;-81
2022/10/04 03:11:52;;;;;;;11.57;7.30;;;5.10;99.90;;;4.86;94.50;98683.81;5102640;28;20494;-81
2022/10/04 03:14:24;;;;;;;8.80;7.10;;;5.10;99.90;;;4.73;94.21;98666.38;5101433;28;20997;-81
2022/10/04 03:16:55;;;;;;;7.80;6.80;;;5.00;99.90;;;4.82;93.43;98680.63;5108434;27;20457;-82
2022/10/04 03:19:25;;;;;;;8.00;6.87;;;5.00;99.90;;;4.82;93.58;98692.19;5125570;27;20974;-83
2022/10/04 03:21:58;;;;;;;9.60;6.87;;;5.00;99.90;;;4.89;92.93;98684.34;5102495;27;20453;-82
2022/10/04 03:24:31;;;;;;;8.07;6.93;;;5.00;99.90;;;4.85;93.19;98687.50;5106091;27;20473;-83
2022/10/04 03:27:03;;;;;;;13.23;7.10;;;5.00;99.90;;;4.79;93.66;98695.19;5115637;27;20557;-82
2022/10/04 03:29:32;;;;;;;9.20;7.43;;;5.00;99.90;;;4.72;94.33;98694.16;5095795;28;20455;-82
2022/10/04 03:32:03;;;;;;;10.30;7.63;;;5.00;99.90;;;4.46;94.04;98678.97;5104107;27;20486;-83
2022/10/04 03:34:36;;;;;;;9.13;8.10;;;4.90;99.90;;;4.73;94.00;98703.03;5113942;27;20461;-81
2022/10/04 03:37:07;;;;;;;14.07;8.43;;;4.90;99.90;;;4.72;93.88;98706.72;5114407;27;20507;-82
2022/10/04 03:39:42;;;;;;;11.30;7.70;;;4.90;99.90;;;4.70;94.07;98711.34;5125002;27;20449;-83
2022/10/04 03:42:14;;;;;;;12.70;8.20;;;4.90;99.90;;;4.75;93.36;98706.38;5121943;27;20460;-82
2022/10/04 03:44:43;;;;;;;8.43;7.20;;;4.90;99.90;;;4.82;93.88;98692.19;5097472;27;20462;-83
2022/10/04 03:47:14;;;;;;;13.63;8.03;;;4.90;99.90;;;4.75;93.59;98696.50;5079572;27;20488;-83
2022/10/04 03:49:44;;;;;;;12.80;7.77;;;4.90;99.90;;;4.81;93.60;98679.81;5102420;28;20594;-81
2022/10/04 03:52:24;;;;;;;11.83;8.07;;;4.90;99.90;;;4.67;94.26;98648.28;5132708;27;20460;-83
2022/10/04 03:54:58;;;;;;;10.10;7.60;;;5.00;99.90;;;4.67;94.34;98667.03;5114871;27;20565;-84
2022/10/04 03:57:25;;;;;;;12.60;7.70;;;5.00;99.90;;;4.72;94.67;98680.75;5118245;27;20473;-82
2022/10/04 03:59:53;;;;;;;8.40;7.40;;;5.00;99.90;;;4.39;94.75;98600.34;5113392;28;20443;-82
2022/10/04 04:02:32;;;;;;;9.87;8.03;;;5.10;99.90;;;4.77;94.99;98666.91;5103433;27;20907;-82
2022/10/04 04:05:10;;;;;;;8.73;6.57;;;5.00;99.90;;;4.78;94.70;98679.28;5113249;27;20452;-82
2022/10/04 04:07:41;;;;;;;10.53;7.50;;;5.10;99.90;;;4.86;94.24;98675.78;5101765;27;20449;-82
2022/10/04 04:10:21;;;;;;;12.03;8.10;;;5.10;99.90;;;4.91;94.23;98678.81;5127243;27;20486;-82
2022/10/04 04:12:56;;;;;;;10.17;7.97;;;5.10;99.90;;;4.77;94.79;98664.22;5111793;28;20495;-81
2022/10/04 04:15:28;;;;;;;8.90;7.93;;;5.10;99.90;;;4.40;94.38;98580.63;5115391;27;20473;-84
2022/10/04 04:18:00;;;;;;;9.80;8.13;;;5.20;99.90;;;4.80;95.52;98669.25;5094296;28;20446;-81
2022/10/04 04:20:31;;;;;;;10.83;8.10;;;5.10;99.90;;;4.85;95.51;98676.78;5118056;27;20518;-80
2022/10/04 04:23:04;;;;;;;10.47;7.63;;;5.10;99.90;;;4.96;94.71;98671.16;5127090;27;20490;-82
2022/10/04 04:25:38;;;;;;;10.30;8.40;;;5.20;99.90;;;4.45;94.24;98543.50;5104454;27;20457;-81
2022/10/04 04:28:24;;;;;;;11.93;8.03;;;5.30;99.90;;;5.04;94.64;98647.03;5106248;27;20817;-79
2022/10/04 04:30:55;;;;;;;8.87;7.80;;;5.30;99.90;;;4.86;94.74;98632.94;5112599;27;20453;-80
2022/10/04 04:33:30;;;;;;;10.13;7.40;;;5.30;99.90;;;5.03;95.07;98645.38;5102228;28;20451;-82
2022/10/04 04:36:05;;;;;;;8.67;7.77;;;5.30;99.90;;;5.17;94.67;98657.31;5105283;27;20460;-79
2022/10/04 04:38:34;;;;;;;10.00;8.17;;;5.30;99.90;;;5.37;93.88;98657.81;5123262;27;20461;-72
2022/10/04 04:41:11;;;;;;;8.20;7.40;;;5.40;99.90;;;5.28;93.25;98640.06;5100160;27;20454;-80
2022/10/04 04:43:45;;;;;;;8.90;7.97;;;5.50;99.90;;;5.36;93.35;98650.78;5115990;27;20517;-81
2022/10/04 04:46:13;;;;;;;11.17;7.70;;;5.50;99.90;;;5.48;92.67;98658.50;5113449;27;20503;-73
2022/10/04 04:48:43;;;;;;;8.90;7.43;;;5.60;99.90;;;5.55;93.06;98655.97;5105551;27;20544;-73
2022/10/04 04:51:20;;;;;;;8.50;7.40;;;5.60;99.90;;;5.35;93.54;98681.25;5108962;27;20451;-75
2022/10/04 04:53:49;;;;;;;9.60;7.50;;;5.60;99.90;;;5.48;93.65;98682.59;5114556;27;20453;-74
2022/10/04 04:56:22;;;;;;;12.57;8.20;;;5.60;99.90;;;5.55;94.03;98672.91;5093895;27;20459;-75
2022/10/04 04:58:51;;;;;;;9.50;7.50;;;5.60;99.90;;;5.45;93.35;98677.59;5099825;27;20560;-72
2022/10/04 05:01:25;;;;;;;9.53;7.80;;;5.70;99.90;;;5.48;93.60;98691.50;5125266;27;20556;-78
2022/10/04 05:04:03;;;;;;;8.63;7.77;;;5.60;99.90;;;5.60;93.25;98689.31;5096218;28;20474;-79
2022/10/04 05:06:33;;;;;;;9.03;7.83;;;5.70;99.90;;;5.67;93.01;98684.13;5102018;27;20488;-81
2022/10/04 05:09:01;;;;;;;9.10;8.10;;;5.70;99.90;;;5.71;92.80;98684.66;5102115;27;20466;-75
2022/10/04 05:11:32;;;;;;;10.90;9.53;;;5.80;99.90;;;5.62;93.10;98676.59;5116936;27;20549;-79
2022/10/04 05:14:04;;;;;;;9.53;8.53;;;5.70;99.90;;;5.75;91.91;98675.25;5105598;27;20449;-76
2022/10/04 05:16:40;;;;;;;10.07;9.07;;;5.80;99.90;;;5.75;93.14;98667.22;5095471;27;20452;-79
2022/10/04 05:19:14;;;;;;;11.23;8.53;;;5.80;99.90;;;5.83;92.18;98667.19;5115682;27;20446;-77
2022/10/04 05:21:45;;;;;;;10.07;8.97;;;5.90;99.90;;;5.95;91.26;98670.38;5109229;27;20641;-76
2022/10/04 05:24:21;;;;;;;15.00;11.03;;;5.90;99.90;;;5.59;92.12;98655.47;5114589;27;20831;-75
2022/10/04 05:26:53;;;;;;;12.87;8.50;;;5.90;99.90;;;5.76;92.20;98655.47;5121548;27;20462;-76
2022/10/04 05:29:25;;;;;;;9.60;8.30;;;5.90;99.90;;;5.65;92.93;98660.16;5095099;27;21014;-75
2022/10/04 05:32:03;;;;;;;11.20;8.77;;;5.90;99.90;;;5.82;92.15;98661.00;5105868;27;20458;-76
2022/10/04 05:34:38;;;;;;;12.50;8.20;;;5.90;99.90;;;5.90;92.02;98667.34;5101891;27;20537;-75
2022/10/04 05:37:45;;;;;;;10.80;7.77;;;5.90;99.90;;;5.78;91.90;98657.00;5112018;27;20828;-75
2022/10/04 05:40:33;;;;;;;12.67;8.57;;;6.00;99.90;;;5.78;92.52;98648.09;5066653;27;20450;-75
2022/10/04 05:43:02;;;;;;;11.57;8.40;;;6.00;99.90;;;6.04;92.27;98661.31;5119246;27;20979;-75
2022/10/04 05:45:31;;;;;;;12.10;8.10;;;6.20;99.90;;;6.10;91.94;98667.84;5119003;27;20833;-76
2022/10/04 05:48:01;;;;;;;10.40;7.87;;;6.20;99.90;;;6.03;90.86;98669.56;5118195;27;20446;-78
2022/10/04 05:50:34;;;;;;;10.50;8.83;;;6.20;99.90;;;6.05;90.89;98670.22;5119012;27;22843;-72
2022/10/04 05:53:23;;;;;;;16.17;8.93;;;6.20;99.90;;;6.13;91.04;98678.25;5118915;27;20506;-76
2022/10/04 05:55:58;;;;;;;10.33;8.50;;;6.20;99.90;;;6.08;91.89;98653.78;5118923;27;20454;-78
2022/10/04 05:58:55;;;;;;;14.63;8.07;;;6.20;99.90;;;6.16;90.74;98667.19;5096730;28;20554;-77
2022/10/04 06:01:38;;;;;;;10.90;7.70;;;6.30;99.90;;;6.36;91.01;98661.44;5088342;27;20484;-78
2022/10/04 06:04:28;;;;;;;10.27;7.50;;;6.40;99.90;;;6.36;90.92;98653.38;5118535;27;20477;-76
2022/10/04 06:07:01;;;;;;;9.00;7.27;;;6.40;99.90;;;6.17;90.88;98647.41;5102217;27;20455;-78
2022/10/04 06:10:37;;;;;;;8.90;7.70;;;6.40;99.90;;;6.45;90.13;98646.13;5112772;27;20545;-77
2022/10/04 06:13:21;;;;;;;9.13;8.23;;;6.50;99.90;;;6.74;88.99;98656.25;5069498;27;20833;-78
2022/10/04 06:16:13;;;;;;;8.50;7.07;;;6.70;99.90;;;6.84;88.76;98653.38;5113825;27;20554;-75
2022/10/04 06:19:14;;;;;;;10.60;7.57;;;6.70;99.90;;;6.70;88.29;98662.97;5104360;28;20446;-78
2022/10/04 06:22:05;;;;;;;9.17;7.50;;;6.80;99.90;;;6.79;88.98;98671.84;5115381;28;20453;-76
2022/10/04 06:24:36;;;;;;;11.40;7.60;;;6.80;99.90;;;6.91;89.37;98673.13;5118367;28;21103;-78
2022/10/04 06:27:12;;;;;;;7.80;6.50;;;6.90;99.90;;;6.79;89.13;98672.69;5091833;28;20459;-77
2022/10/04 06:29:46;;;;;;;9.90;7.20;;;6.90;99.90;;;6.79;88.91;98682.56;5101289;28;20459;-78
2022/10/04 06:32:40;;;;;;;9.57;7.63;;;7.00;99.90;;;6.85;88.74;98689.97;5104285;27;20462;-79
2022/10/04 06:35:58;;;;;;;8.37;6.77;;;7.00;99.90;;;6.91;87.79;98686.56;5122655;27;20488;-80
2022/10/04 06:38:47;;;;;;;11.83;6.70;;;7.10;99.90;;;7.05;89.10;98693.06;5075602;27;20443;-81
2022/10/04 06:45:38;;;;;;;7.60;6.73;;;7.30;99.90;;;7.76;87.39;98699.28;5394930;22;20500;-80
2022/10/04 06:48:49;;;;;;;16.37;7.70;;;7.60;99.90;;;7.25;85.95;98636.16;5013733;28;20454;-79
2022/10/04 06:51:39;;;;;;;10.67;7.50;;;7.60;99.90;;;7.83;85.40;98694.88;5006836;28;20480;-78
2022/10/04 06:54:24;;;;;;;9.10;7.40;;;7.80;99.70;;;7.78;85.34;98694.56;5022219;28;20512;-81
2022/10/04 06:57:22;;;;;;;6.70;5.80;;;7.90;98.90;;;7.47;83.85;98606.75;5020029;28;20499;-79
2022/10/04 07:00:06;;;;;;;10.17;6.90;;;8.10;96.60;;;7.98;83.79;98686.00;5021266;28;20566;-80
2022/10/04 07:02:41;;;;;;;7.27;5.87;;;8.20;95.00;;;7.99;83.52;98690.38;5021779;28;20474;-79
2022/10/04 07:05:29;;;;;;;6.57;5.97;;;8.20;95.90;;;8.32;82.20;98695.44;5006463;28;20478;-79
2022/10/04 07:08:06;;;;;;;10.90;6.80;;;8.30;94.80;;;8.57;82.11;98681.72;5007480;28;20947;-79
2022/10/04 07:10:41;;;;;;;10.57;5.90;;;8.50;94.70;;;8.80;81.53;98692.41;5022875;28;20585;-79
2022/10/04 07:13:30;;;;;;;8.00;6.50;;;8.70;93.80;;;8.44;81.00;98675.09;5019234;28;20466;-81
2022/10/04 07:16:03;;;;;;;11.03;6.77;;;8.70;93.00;;;8.70;81.40;98675.69;5008923;28;20561;-79
2022/10/04 07:18:43;;;;;;;8.33;6.90;;;8.70;93.60;;;9.03;80.15;98681.50;5025482;28;20474;-80
2022/10/04 07:21:16;;;;;;;9.32;6.80;;;8.90;92.50;;;9.00;80.06;98673.75;5020302;28;20579;-78
2022/10/04 07:23:50;;;;;;;8.53;5.80;;;9.00;92.10;;;8.83;79.13;98624.66;5018363;28;20232;-79
2022/10/04 07:26:27;;;;;;;9.40;6.93;;;9.10;92.00;;;9.13;79.34;98700.06;5001604;28;21310;-82
2022/10/04 07:31:46;;;;;;;6.97;6.30;;;9.30;91.90;;;9.41;78.35;98703.88;5018110;28;20828;-76
2022/10/04 07:34:20;;;;;;;9.23;6.50;;;9.50;91.00;;;9.70;78.23;98689.44;5021131;28;20561;-79
2022/10/04 07:36:54;;;;;;;8.37;6.37;;;9.60;91.20;;;10.01;76.22;98682.88;5028540;28;20492;-80
2022/10/04 07:39:26;;;;;;;7.17;5.10;;;9.90;90.00;;;10.20;74.87;98686.72;5030148;28;20495;-80
2022/10/04 07:41:57;;;;;;;6.73;6.03;;;10.20;87.90;;;10.54;75.50;98695.09;5036985;28;20499;-81
2022/10/04 07:44:35;;;;;;;6.80;6.10;;;10.30;87.70;;;10.82;74.31;98701.47;5011395;28;20479;-81
2022/10/04 07:47:18;;;;;;;11.27;6.50;;;10.60;86.90;;;11.03;73.14;98684.31;5022394;28;20471;-81
2022/10/04 07:49:49;;;;;;;8.23;5.90;;;10.90;85.60;;;10.82;74.33;98682.56;5021744;28;20466;-81
2022/10/04 07:52:48;;;;;;;12.57;6.00;;;10.70;86.00;;;11.05;73.57;98696.59;5027040;28;20465;-81
2022/10/04 07:55:27;;;;;;;11.17;6.10;;;10.80;86.00;;;11.52;72.39;98698.63;5017607;28;20469;-78
2022/10/04 07:58:19;;;;;;;8.70;6.70;;;11.20;85.90;;;11.58;70.87;98692.38;5020833;28;20547;-81
2022/10/04 08:00:57;;;;;;;10.33;6.20;;;11.50;84.70;;;11.46;71.33;98700.25;5003595;28;21406;-80
2022/10/04 08:03:57;;;;;;;8.50;6.70;;;11.50;84.70;;;11.60;71.58;98684.06;5017142;28;20551;-80
2022/10/04 08:06:36;;;;;;;6.93;5.40;;;11.50;84.50;;;12.03;70.74;98708.06;5021584;28;20465;-82
2022/10/04 08:09:34;;;;;;;10.20;6.40;;;11.80;84.20;;;12.17;70.32;98702.66;5004624;28;21281;-80
2022/10/04 08:12:17;;;;;;;9.47;6.23;;;11.80;84.40;;;12.35;69.42;98715.53;5017885;28;20897;-83
2022/10/04 08:15:09;;;;;;;10.20;5.90;;;12.10;83.60;;;12.04;70.90;98708.88;5019483;28;20489;-77
2022/10/04 08:17:49;;;;;;;7.70;6.40;;;12.00;83.30;;;12.05;70.94;98715.97;5034716;28;20454;-81
2022/10/04 08:20:37;;;;;;;6.33;5.53;;;11.90;84.10;;;12.31;70.22;98706.19;5022496;28;20501;-82
2022/10/04 08:23:39;;;;;;;7.23;6.30;;;12.00;83.80;;;12.61;69.21;98686.75;5001462;28;20954;-81
2022/10/04 08:26:47;;;;;;;8.63;6.40;;;12.20;83.70;;;12.92;68.07;98679.75;5024274;28;20483;-81
2022/10/04 08:29:42;;;;;;;8.43;5.60;;;12.50;83.40;;;12.50;69.03;98676.53;5004705;28;20460;-81
2022/10/04 08:32:28;;;;;;;8.17;6.10;;;12.60;82.80;;;11.93;71.01;98688.66;5018678;28;21019;-81
2022/10/04 08:35:19;;;;;;;9.40;6.60;;;12.10;83.30;;;12.53;69.47;98692.41;5037416;28;20464;-82
2022/10/04 08:38:04;;;;;;;13.47;7.03;;;12.20;83.70;;;12.54;69.56;98699.50;5031999;28;20496;-82
2022/10/04 08:41:25;;;;;;;10.70;6.47;;;12.40;83.40;;;12.43;69.16;98700.94;5021940;28;20582;-79
2022/10/04 08:44:42;;;;;;;7.37;6.30;;;12.60;83.10;;;12.68;70.20;98711.97;4996529;28;21064;-81
2022/10/04 08:48:04;;;;;;;8.00;6.70;;;12.40;83.80;;;12.97;68.94;98728.78;5021415;28;21046;-80
2022/10/04 08:51:20;;;;;;;8.47;6.00;;;12.60;83.30;;;13.55;67.63;98718.94;5032581;28;20492;-80
2022/10/04 08:54:26;;;;;;;6.77;6.07;;;13.00;83.60;;;13.64;66.01;98699.69;5023442;28;20505;-80
2022/10/04 08:57:13;;;;;;;9.20;6.33;;;13.40;82.30;;;13.67;66.17;98721.81;5020941;28;20453;-81
2022/10/04 09:00:14;;;;;;;9.43;6.40;;;13.50;81.80;;;13.58;66.03;98710.38;5020421;28;20516;-80
2022/10/04 09:03:26;;;;;;;10.47;7.00;;;13.40;82.00;;;13.29;67.58;98726.16;5005791;28;20554;-82
2022/10/04 09:06:18;;;;;;;8.37;6.23;;;13.20;82.30;;;14.04;65.27;98715.72;5019459;28;20509;-81
2022/10/04 09:09:33;;;;;;;8.40;6.80;;;13.60;81.70;;;13.59;66.66;98709.34;5022973;28;20530;-76
2022/10/04 09:12:49;;;;;;;7.07;6.23;;;13.80;81.10;;;14.32;65.28;98711.69;5020552;28;20457;-81
2022/10/04 09:15:40;;;;;;;8.10;6.13;;;13.80;81.70;;;14.56;63.58;98717.34;5019137;28;20462;-81
2022/10/04 09:18:23;;;;;;;9.80;5.87;;;14.10;80.80;;;14.57;64.07;98713.56;5019351;28;20469;-82
2022/10/04 09:21:01;;;;;;;7.10;5.77;;;14.30;80.60;;;14.33;63.21;98705.22;5018996;28;20462;-80
2022/10/04 09:24:25;;;;;;;6.73;5.60;;;14.30;79.90;;;14.62;63.62;98702.81;5015896;28;20501;-81
2022/10/04 09:27:01;;;;;;;8.40;5.60;;;14.20;80.70;;;14.18;64.52;98716.41;4981529;28;20535;-81
2022/10/04 09:30:01;;;;;;;12.33;6.50;;;14.00;80.30;;;14.58;63.79;98705.19;5033173;28;20468;-80
2022/10/04 09:33:15;;;;;;;10.80;6.00;;;14.30;80.30;;;14.92;62.50;98710.28;5017627;28;20536;-80
2022/10/04 09:36:30;;;;;;;8.60;5.70;;;14.50;80.20;;;15.07;61.53;98698.19;5015728;28;20545;-81
2022/10/04 09:39:46;;;;;;;5.77;4.80;;;14.60;79.50;;;14.73;62.40;98693.97;5015480;28;20468;-81
2022/10/04 09:43:04;;;;;;;8.40;4.93;;;14.50;79.40;;;14.77;62.83;98688.06;5019714;28;20879;-81
2022/10/04 09:45:51;;;;;;;6.90;4.53;;;14.50;79.50;;;15.08;61.70;98684.34;5021066;28;20482;-83
2022/10/04 09:48:29;;;;;;;7.03;5.23;;;14.70;79.10;;;15.43;60.64;98680.13;4998762;28;20559;-82
2022/10/04 09:51:39;;;;;;;5.00;4.30;;;15.00;79.00;;;15.06;61.53;98680.19;5014559;28;20464;-80
2022/10/04 09:54:48;;;;;;;6.60;5.13;;;14.90;78.30;;;15.38;60.81;98678.09;5000373;28;21064;-82
2022/10/04 09:57:26;;;;;;;11.13;5.07;;;14.90;78.30;;;14.86;61.39;98643.19;5019383;28;20515;-82
2022/10/04 10:00:09;;;;;;;8.83;5.23;;;14.80;78.10;;;15.22;60.38;98690.44;5006127;28;20554;-81
2022/10/04 10:03:25;;;;;;;6.97;4.60;;;14.80;78.10;;;15.01;60.07;98692.59;5014634;28;20457;-81
2022/10/04 10:06:22;;;;;;;6.07;4.00;;;14.90;77.60;;;15.54;59.17;98683.97;5011929;28;20480;-81
2022/10/04 10:09:08;;;;;;;6.47;3.40;;;15.00;77.60;;;15.04;58.61;98641.50;5030306;28;20465;-81
2022/10/04 10:15:07;;;;;;;6.27;3.67;;;15.10;75.70;;;15.27;58.77;98689.75;5039588;28;20542;-81
2022/10/04 10:17:42;;;;;;;5.87;3.90;;;15.00;75.90;;;15.14;59.29;98690.78;5021083;28;20520;-82
2022/10/04 10:20:55;;;;;;;4.33;3.63;;;14.90;76.10;;;15.61;58.33;98686.59;5023365;28;20872;-80
2022/10/04 10:23:49;;;;;;;8.20;3.90;;;15.10;76.10;;;15.40;58.68;98686.06;5020259;28;20469;-81
2022/10/04 10:27:13;;;;;;;4.10;3.43;;;15.10;75.80;;;15.39;57.79;98684.38;5020096;28;20478;-82
2022/10/04 10:30:12;;;;;;;4.13;3.00;;;15.10;75.40;;;15.48;57.50;98690.34;5003565;28;20472;-81
2022/10/04 10:33:10;;;;;;;4.70;2.97;;;15.10;74.90;;;15.69;56.50;98684.34;5021094;28;20484;-83
2022/10/04 10:36:18;;;;;;;3.37;2.83;;;15.20;74.40;;;15.91;55.90;98675.66;5009892;28;20479;-82
2022/10/04 10:39:18;;;;;;;4.00;2.70;;;15.40;74.10;;;16.06;55.64;98668.94;5002979;28;20458;-82
2022/10/04 10:42:05;;;;;;;4.40;2.50;;;15.50;73.80;;;16.12;53.66;98674.28;5027041;28;20462;-84
2022/10/04 10:45:16;;;;;;;6.10;3.23;;;15.70;71.80;;;16.33;53.20;98655.69;5025935;28;20462;-81
2022/10/04 10:47:54;;;;;;;4.53;2.40;;;15.90;71.70;;;15.93;54.04;98676.28;5006453;28;20452;-78
2022/10/04 10:51:02;;;;;;;3.20;2.33;;;15.90;71.00;;;15.52;54.42;98670.56;5025869;28;20469;-79
2022/10/04 10:54:26;;;;;;;3.70;2.60;;;15.40;70.70;;;15.64;53.37;98582.63;5006818;28;21096;-79
2022/10/04 10:57:06;;;;;;;4.07;2.30;;;15.70;71.00;;;16.42;51.54;98678.78;4977453;28;20572;-82
2022/10/04 11:00:05;;;;;;;4.03;2.30;;;15.90;69.70;;;16.36;51.71;98668.84;5024122;28;20480;-82
2022/10/04 11:03:16;;;;;;;4.40;2.50;;;16.10;68.90;;;16.41;51.80;98668.94;5015373;28;20967;-78
2022/10/04 11:06:43;;;;;;;4.77;2.20;;;16.10;69.10;;;16.06;52.30;98668.94;5005736;28;20477;-80
2022/10/04 11:09:32;;;;;;;3.03;1.60;;;16.10;68.20;;;16.20;51.60;98667.63;5030249;28;20469;-82
2022/10/04 11:12:37;;;;;;;3.17;1.57;;;15.90;67.50;;;16.41;49.93;98660.75;5007029;28;21048;-80
2022/10/04 11:15:39;;;;;;;3.83;2.03;;;16.00;67.10;;;16.47;48.43;98660.91;5019303;28;21274;-79
2022/10/04 11:19:02;;;;;;;3.50;1.60;;;16.20;64.90;;;16.89;47.32;98649.78;5020585;28;20473;-76
2022/10/04 11:22:29;;;;;;;3.97;2.17;;;16.40;64.20;;;16.39;49.26;98640.28;5007033;28;20534;-81
2022/10/04 11:25:43;;;;;;;2.10;1.43;;;16.40;64.40;;;16.42;50.06;98639.78;4989875;28;20483;-81
2022/10/04 11:28:19;;;;;;;3.10;1.87;;;16.10;64.80;;;16.79;49.61;98635.94;5033323;28;20466;-81
2022/10/04 11:31:41;;;;;;;4.10;1.33;;;16.40;65.40;;;17.13;48.22;98625.16;5029795;28;20468;-82
2022/10/04 11:34:54;;;;;;;1.60;1.30;;;16.60;64.50;;;16.95;49.45;98631.59;4995047;28;20464;-81
2022/10/04 11:37:42;;;;;;;5.13;1.90;;;16.80;65.10;;;17.32;48.86;98614.03;5024017;28;20961;-83
2022/10/04 11:40:38;;;;;;;4.07;2.13;;;16.90;65.40;;;17.12;48.99;98626.25;5021732;28;20858;-81
2022/10/04 11:43:41;;;;;;;4.00;1.80;;;16.90;64.70;;;16.90;50.22;98596.03;5024149;28;20551;-83
2022/10/04 11:46:28;;;;;;;2.40;1.93;;;16.80;65.40;;;17.01;50.50;98619.78;5041966;28;20481;-82